createdAt,value
2023-02-26T00:00:24.978Z,6.13
2023-02-26T00:02:52.808Z,6.12
2023-02-26T00:05:20.897Z,6.10
2023-02-26T00:07:48.613Z,6.08
2023-02-26T00:10:16.749Z,6.08
2023-02-26T00:12:47.000Z,6.04
2023-02-26T00:15:17.731Z,6.01
2023-02-26T00:17:54.499Z,5.98
2023-02-26T00:20:23.405Z,6.01
2023-02-26T00:22:52.024Z,6.02
2023-02-26T00:25:19.952Z,6.00
2023-02-26T00:27:49.971Z,6.00
2023-02-26T00:30:18.346Z,6.00
2023-02-26T00:32:46.924Z,5.99
2023-02-26T00:35:16.882Z,5.96
2023-02-26T00:37:59.947Z,5.98
2023-02-26T00:40:42.534Z,5.97
2023-02-26T00:43:16.404Z,5.95
2023-02-26T00:45:49.228Z,5.96
2023-02-26T00:48:31.424Z,5.94
2023-02-26T00:51:07.464Z,5.94
2023-02-26T00:53:40.485Z,5.92
2023-02-26T00:56:08.294Z,5.92
2023-02-26T00:58:37.448Z,5.92
2023-02-26T01:01:05.430Z,5.92
2023-02-26T01:03:33.920Z,5.88
2023-02-26T01:06:02.004Z,5.87
2023-02-26T01:08:34.962Z,5.87
2023-02-26T01:11:03.140Z,5.86
2023-02-26T01:13:31.180Z,5.85
2023-02-26T01:16:06.139Z,5.84
2023-02-26T01:18:41.768Z,5.83
2023-02-26T01:21:16.270Z,5.81
2023-02-26T01:23:48.885Z,5.82
2023-02-26T01:26:20.613Z,5.80
2023-02-26T01:28:48.796Z,5.79
2023-02-26T01:31:31.411Z,5.79
2023-02-26T01:34:04.378Z,5.79
2023-02-26T01:36:37.939Z,5.80
2023-02-26T01:39:13.653Z,5.79
2023-02-26T01:41:47.699Z,5.78
2023-02-26T01:44:24.660Z,5.79
2023-02-26T01:47:02.192Z,5.77
2023-02-26T01:49:31.504Z,5.76
2023-02-26T01:52:01.391Z,5.77
2023-02-26T01:54:31.676Z,5.77
2023-02-26T01:57:04.915Z,5.76
2023-02-26T01:59:33.880Z,5.72
2023-02-26T02:02:06.121Z,5.76
2023-02-26T02:04:34.521Z,5.74
2023-02-26T02:07:02.304Z,5.74
2023-02-26T02:09:30.087Z,5.76
2023-02-26T02:12:31.107Z,5.75
2023-02-26T02:15:09.957Z,5.75
2023-02-26T02:17:49.864Z,5.75
2023-02-26T02:20:43.707Z,5.73
2023-02-26T02:23:16.697Z,5.69
2023-02-26T02:26:15.688Z,5.65
2023-02-26T02:29:04.292Z,5.64
2023-02-26T02:31:37.872Z,5.58
2023-02-26T02:34:13.355Z,5.54
2023-02-26T02:36:50.180Z,5.55
2023-02-26T02:39:23.122Z,5.54
2023-02-26T02:41:55.521Z,5.51
2023-02-26T02:44:26.369Z,5.51
2023-02-26T02:46:59.297Z,5.56
2023-02-26T02:49:32.885Z,5.52
2023-02-26T02:52:06.580Z,5.52
2023-02-26T02:54:39.222Z,5.52
2023-02-26T02:57:13.687Z,5.53
2023-02-26T02:59:45.014Z,5.49
2023-02-26T03:02:22.102Z,5.47
2023-02-26T03:04:49.750Z,5.51
2023-02-26T03:07:17.578Z,5.50
2023-02-26T03:09:45.660Z,5.45
2023-02-26T03:12:13.460Z,5.41
2023-02-26T03:14:42.152Z,5.36
2023-02-26T03:17:27.094Z,5.38
2023-02-26T03:20:10.082Z,5.39
2023-02-26T03:22:43.869Z,5.38
2023-02-26T03:25:17.616Z,5.36
2023-02-26T03:27:50.546Z,5.34
2023-02-26T03:30:22.814Z,5.35
2023-02-26T03:33:00.298Z,5.35
2023-02-26T03:35:36.961Z,5.37
2023-02-26T03:38:08.476Z,5.36
2023-02-26T03:40:40.242Z,5.34
2023-02-26T03:43:11.695Z,5.32
2023-02-26T03:45:43.477Z,5.29
2023-02-26T03:48:17.137Z,5.26
2023-02-26T03:50:49.370Z,5.29
2023-02-26T03:53:23.687Z,5.29
2023-02-26T03:55:56.625Z,5.28
2023-02-26T03:58:24.581Z,5.27
2023-02-26T04:00:57.245Z,5.25
2023-02-26T04:03:31.929Z,5.24
2023-02-26T04:06:01.021Z,5.24
2023-02-26T04:08:29.753Z,5.22
2023-02-26T04:11:00.577Z,5.18
2023-02-26T04:13:30.197Z,5.15
2023-02-26T04:15:57.916Z,5.15
2023-02-26T04:18:27.049Z,5.16
2023-02-26T04:20:54.763Z,5.17
2023-02-26T04:23:22.568Z,5.15
2023-02-26T04:25:50.284Z,5.14
2023-02-26T04:28:18.524Z,5.14
2023-02-26T04:30:46.269Z,5.16
2023-02-26T04:33:14.033Z,5.14
2023-02-26T04:35:43.175Z,5.11
2023-02-26T04:38:10.907Z,5.13
2023-02-26T04:40:38.657Z,5.12
2023-02-26T04:43:06.511Z,5.09
2023-02-26T04:45:34.208Z,5.06
2023-02-26T04:48:02.047Z,5.06
2023-02-26T04:50:29.746Z,5.08
2023-02-26T04:52:58.933Z,5.07
2023-02-26T04:55:26.605Z,5.08
2023-02-26T04:57:54.571Z,5.09
2023-02-26T05:00:22.772Z,5.06
2023-02-26T05:02:50.459Z,5.07
2023-02-26T05:05:18.204Z,5.04
2023-02-26T05:07:45.880Z,5.04
2023-02-26T05:10:15.008Z,5.06
2023-02-26T05:12:42.721Z,5.06
2023-02-26T05:15:11.184Z,5.07
2023-02-26T05:17:39.018Z,5.04
2023-02-26T05:20:10.064Z,5.00
2023-02-26T05:22:38.077Z,5.01
2023-02-26T05:25:07.193Z,5.00
2023-02-26T05:27:36.334Z,4.96
2023-02-26T05:30:05.117Z,4.94
2023-02-26T05:32:32.852Z,4.92
2023-02-26T05:35:00.614Z,4.89
2023-02-26T05:37:28.402Z,4.90
2023-02-26T05:39:56.066Z,4.92
2023-02-26T05:42:23.777Z,4.90
2023-02-26T05:44:52.912Z,4.86
2023-02-26T05:47:20.764Z,4.86
2023-02-26T05:49:48.547Z,4.84
2023-02-26T05:52:16.536Z,4.82
2023-02-26T05:54:44.320Z,4.80
2023-02-26T05:57:12.029Z,4.82
2023-02-26T05:59:39.723Z,4.81
2023-02-26T06:02:10.073Z,4.80
2023-02-26T06:04:38.049Z,4.86
2023-02-26T06:07:05.825Z,4.96
2023-02-26T06:09:33.633Z,5.09
2023-02-26T06:12:01.343Z,5.26
2023-02-26T06:14:29.269Z,5.38
2023-02-26T06:16:56.971Z,5.56
2023-02-26T06:19:26.202Z,5.72
2023-02-26T06:21:53.903Z,5.82
2023-02-26T06:24:21.941Z,5.93
2023-02-26T06:26:49.792Z,6.00
2023-02-26T06:29:20.322Z,6.04
2023-02-26T06:31:48.904Z,6.18
2023-02-26T06:34:16.944Z,6.33
2023-02-26T06:36:46.373Z,6.41
2023-02-26T06:39:14.102Z,6.48
2023-02-26T06:41:41.876Z,6.53
2023-02-26T06:44:10.248Z,6.58
2023-02-26T06:46:38.031Z,6.51
2023-02-26T06:49:05.851Z,6.47
2023-02-26T06:51:34.464Z,6.42
2023-02-26T06:54:03.839Z,6.46
2023-02-26T06:56:31.634Z,6.53
2023-02-26T06:58:59.387Z,6.53
2023-02-26T07:01:27.319Z,6.43
2023-02-26T07:03:55.116Z,6.31
2023-02-26T07:06:27.670Z,6.15
2023-02-26T07:08:56.609Z,5.99
2023-02-26T07:11:25.728Z,5.85
2023-02-26T07:13:53.471Z,5.71
2023-02-26T07:16:21.221Z,5.53
2023-02-26T07:18:49.072Z,5.43
2023-02-26T07:21:16.769Z,5.33
2023-02-26T07:23:44.507Z,5.32
2023-02-26T07:26:12.260Z,5.26
2023-02-26T07:28:41.404Z,5.26
2023-02-26T07:31:09.261Z,5.13
2023-02-26T07:33:38.703Z,5.21
2023-02-26T07:36:06.926Z,5.17
2023-02-26T07:38:34.652Z,5.12
2023-02-26T07:41:02.423Z,5.03
2023-02-26T07:43:30.149Z,5.04
2023-02-26T07:45:59.237Z,5.03
2023-02-26T07:48:27.065Z,5.03
2023-02-26T07:51:03.091Z,5.02
2023-02-26T07:53:30.817Z,5.01
2023-02-26T07:55:58.542Z,4.81
2023-02-26T07:58:26.367Z,4.88
2023-02-26T08:00:54.068Z,4.88
2023-02-26T08:03:23.229Z,4.90
2023-02-26T08:05:51.005Z,4.91
2023-02-26T08:08:18.742Z,4.88
2023-02-26T08:10:46.487Z,4.86
2023-02-26T08:13:14.217Z,4.81
2023-02-26T08:15:43.973Z,4.76
2023-02-26T08:18:11.969Z,4.75
2023-02-26T08:20:41.054Z,4.72
2023-02-26T08:23:08.751Z,4.85
2023-02-26T08:25:36.860Z,5.00
2023-02-26T08:28:04.602Z,5.10
2023-02-26T08:30:32.929Z,5.30
2023-02-26T08:33:00.683Z,5.37
2023-02-26T08:35:28.456Z,5.59
2023-02-26T08:37:57.613Z,5.76
2023-02-26T08:40:25.325Z,5.48
2023-02-26T08:42:53.012Z,5.40
2023-02-26T08:45:21.337Z,5.41
2023-02-26T08:47:56.834Z,5.35
2023-02-26T08:50:25.371Z,5.20
2023-02-26T08:52:53.201Z,5.19
2023-02-26T08:55:22.780Z,5.02
2023-02-26T08:57:50.550Z,5.04
2023-02-26T09:00:19.370Z,5.08
2023-02-26T09:02:47.427Z,5.00
2023-02-26T09:05:15.774Z,4.89
2023-02-26T09:07:44.063Z,4.98
2023-02-26T09:10:14.068Z,4.88
2023-02-26T09:12:43.673Z,4.81
2023-02-26T09:15:12.679Z,4.76
2023-02-26T09:17:40.412Z,4.72
2023-02-26T09:20:09.933Z,4.65
2023-02-26T09:22:38.075Z,4.53
2023-02-26T09:25:06.837Z,4.50
2023-02-26T09:27:35.862Z,4.53
2023-02-26T09:30:06.391Z,4.53
2023-02-26T09:32:34.484Z,4.50
2023-02-26T09:35:02.646Z,4.45
2023-02-26T09:37:30.410Z,4.52
2023-02-26T09:39:58.400Z,4.48
2023-02-26T09:42:41.079Z,4.48
2023-02-26T09:45:19.605Z,4.59
2023-02-26T09:47:52.610Z,4.63
2023-02-26T09:50:25.325Z,4.64
2023-02-26T09:52:59.779Z,4.67
2023-02-26T09:55:30.956Z,4.70
2023-02-26T09:58:01.626Z,4.74
2023-02-26T10:00:37.756Z,4.68
2023-02-26T10:03:19.263Z,4.63
2023-02-26T10:05:58.479Z,4.68
2023-02-26T10:08:34.823Z,4.75
2023-02-26T10:11:08.130Z,4.84
2023-02-26T10:13:56.523Z,4.87
2023-02-26T10:16:31.517Z,4.92
2023-02-26T10:19:05.040Z,4.95
2023-02-26T10:21:38.971Z,4.96
2023-02-26T10:24:14.283Z,4.92
2023-02-26T10:26:46.699Z,4.90
2023-02-26T10:29:23.156Z,4.88
2023-02-26T10:32:04.609Z,4.81
2023-02-26T10:34:40.240Z,4.71
2023-02-26T10:37:17.916Z,4.61
2023-02-26T10:39:51.601Z,4.63
2023-02-26T10:42:24.040Z,4.67
2023-02-26T10:45:10.311Z,4.73
2023-02-26T10:47:47.536Z,4.80
2023-02-26T10:50:18.898Z,4.89
2023-02-26T10:52:47.278Z,4.94
2023-02-26T10:55:37.826Z,4.90
2023-02-26T10:58:07.802Z,4.93
2023-02-26T11:00:36.444Z,4.93
2023-02-26T11:03:09.169Z,4.93
2023-02-26T11:05:37.092Z,4.89
2023-02-26T11:08:07.668Z,4.84
2023-02-26T11:10:42.882Z,4.86
2023-02-26T11:13:11.012Z,4.90
2023-02-26T11:15:42.415Z,4.95
2023-02-26T11:18:17.751Z,4.93
2023-02-26T11:20:47.952Z,4.96
2023-02-26T11:23:19.940Z,4.97
2023-02-26T11:25:47.980Z,5.02
2023-02-26T11:28:32.649Z,5.09
2023-02-26T11:31:02.920Z,5.07
2023-02-26T11:33:38.614Z,4.97
2023-02-26T11:36:12.512Z,4.82
2023-02-26T11:38:40.520Z,4.94
2023-02-26T11:41:09.040Z,4.99
2023-02-26T11:43:44.113Z,5.10
2023-02-26T11:46:13.618Z,5.19
2023-02-26T11:48:46.222Z,5.14
2023-02-26T11:51:16.871Z,5.10
2023-02-26T11:53:50.415Z,5.07
2023-02-26T11:56:26.250Z,5.03
2023-02-26T11:58:55.955Z,4.99
2023-02-26T12:01:28.752Z,5.09
2023-02-26T12:04:00.995Z,5.04
2023-02-26T12:06:28.884Z,5.02
2023-02-26T12:08:57.123Z,5.08
2023-02-26T12:11:41.094Z,5.17
2023-02-26T12:14:21.698Z,5.26
2023-02-26T12:17:02.310Z,5.35
2023-02-26T12:19:41.754Z,5.43
2023-02-26T12:22:40.356Z,5.45
2023-02-26T12:25:23.568Z,5.54
2023-02-26T12:28:16.908Z,5.55
2023-02-26T12:31:03.901Z,5.47
2023-02-26T12:33:45.547Z,5.40
2023-02-26T12:36:31.702Z,5.50
2023-02-26T12:39:17.691Z,5.61
2023-02-26T12:41:55.677Z,5.65
2023-02-26T12:44:48.181Z,5.64
2023-02-26T12:47:42.795Z,5.64
2023-02-26T12:50:23.657Z,5.69
2023-02-26T12:53:19.241Z,5.71
2023-02-26T12:56:01.623Z,5.63
2023-02-26T12:58:50.463Z,5.65
2023-02-26T13:01:33.825Z,5.65
2023-02-26T13:04:16.362Z,5.62
2023-02-26T13:07:01.728Z,5.70
2023-02-26T13:09:46.517Z,5.72
2023-02-26T13:12:28.942Z,5.71
2023-02-26T13:15:11.648Z,5.72
2023-02-26T13:17:48.633Z,5.67
2023-02-26T13:20:18.677Z,5.64
2023-02-26T13:22:50.756Z,5.65
2023-02-26T13:25:26.417Z,5.69
2023-02-26T13:27:55.921Z,5.73
2023-02-26T13:30:29.386Z,6.00
2023-02-26T13:32:59.579Z,6.29
2023-02-26T13:35:31.021Z,6.53
2023-02-26T13:38:02.863Z,6.78
2023-02-26T13:40:53.075Z,7.05
2023-02-26T13:43:32.807Z,7.21
2023-02-26T13:46:11.775Z,7.41
2023-02-26T13:48:49.750Z,7.59
2023-02-26T13:51:31.624Z,7.65
2023-02-26T13:54:01.728Z,7.48
2023-02-26T13:56:50.880Z,7.40
2023-02-26T13:59:38.876Z,7.27
2023-02-26T14:02:40.000Z,7.08
2023-02-26T14:05:30.653Z,6.94
2023-02-26T14:08:20.778Z,6.74
2023-02-26T14:10:56.587Z,6.68
2023-02-26T14:13:34.713Z,6.65
2023-02-26T14:16:10.766Z,6.53
2023-02-26T14:18:50.286Z,6.43
2023-02-26T14:21:52.173Z,6.38
2023-02-26T14:24:26.472Z,6.38
2023-02-26T14:27:09.320Z,6.40
2023-02-26T14:29:43.933Z,6.41
2023-02-26T14:32:17.558Z,6.46
2023-02-26T14:34:53.245Z,6.48
2023-02-26T14:37:24.396Z,6.47
2023-02-26T14:39:57.478Z,6.43
2023-02-26T14:42:33.325Z,6.48
2023-02-26T14:45:10.545Z,6.72
2023-02-26T14:47:39.159Z,6.97
2023-02-26T14:50:08.365Z,7.15
2023-02-26T14:52:56.070Z,7.43
2023-02-26T14:55:57.094Z,7.67
2023-02-26T14:58:45.592Z,7.86
2023-02-26T15:01:28.206Z,7.87
2023-02-26T15:04:14.513Z,7.91
2023-02-26T15:07:29.886Z,7.81
2023-02-26T15:10:12.448Z,7.83
2023-02-26T15:12:56.669Z,7.79
2023-02-26T15:15:46.136Z,7.61
2023-02-26T15:18:36.303Z,7.54
2023-02-26T15:21:15.036Z,7.44
2023-02-26T15:23:45.685Z,7.35
2023-02-26T15:26:20.278Z,7.27
2023-02-26T15:28:49.079Z,7.16
2023-02-26T15:31:20.001Z,7.13
2023-02-26T15:33:50.977Z,7.04
2023-02-26T15:36:24.265Z,7.01
2023-02-26T15:38:58.722Z,7.01
2023-02-26T15:41:28.822Z,7.01
2023-02-26T15:44:00.487Z,6.85
2023-02-26T15:46:33.028Z,6.82
2023-02-26T15:49:07.943Z,6.87
2023-02-26T15:51:36.419Z,6.97
2023-02-26T15:54:04.898Z,7.07
2023-02-26T15:56:37.742Z,7.32
2023-02-26T15:59:09.544Z,7.63
2023-02-26T16:01:37.750Z,7.72
2023-02-26T16:04:13.572Z,7.67
2023-02-26T16:06:43.167Z,7.61
2023-02-26T16:09:18.277Z,7.46
2023-02-26T16:11:48.528Z,7.34
2023-02-26T16:14:21.183Z,7.20
2023-02-26T16:16:52.409Z,7.04
2023-02-26T16:19:27.749Z,6.77
2023-02-26T16:21:57.122Z,6.65
2023-02-26T16:24:25.018Z,6.69
2023-02-26T16:26:57.566Z,6.68
2023-02-26T16:29:28.708Z,6.68
2023-02-26T16:31:58.408Z,6.68
2023-02-26T16:34:37.443Z,6.67
2023-02-26T16:37:20.590Z,6.66
2023-02-26T16:39:52.700Z,6.69
2023-02-26T16:42:23.280Z,6.67
2023-02-26T16:44:53.378Z,6.62
2023-02-26T16:47:22.083Z,6.53
2023-02-26T16:49:51.562Z,6.56
2023-02-26T16:52:23.506Z,6.53
2023-02-26T16:55:01.465Z,6.58
2023-02-26T16:57:36.592Z,6.58
2023-02-26T17:00:14.931Z,6.53
2023-02-26T17:02:44.428Z,6.62
2023-02-26T17:05:22.752Z,6.82
2023-02-26T17:07:58.249Z,7.02
2023-02-26T17:10:33.656Z,7.26
2023-02-26T17:13:13.354Z,7.45
2023-02-26T17:15:41.889Z,7.63
2023-02-26T17:18:09.672Z,7.83
2023-02-26T17:20:40.185Z,8.00
2023-02-26T17:23:09.874Z,8.10
2023-02-26T17:25:40.997Z,8.25
2023-02-26T17:28:09.515Z,8.37
2023-02-26T17:30:38.287Z,8.43
2023-02-26T17:33:07.838Z,8.46
2023-02-26T17:35:35.772Z,8.54
2023-02-26T17:38:04.969Z,8.57
2023-02-26T17:40:36.442Z,8.55
2023-02-26T17:43:04.719Z,8.44
2023-02-26T17:45:33.505Z,8.47
2023-02-26T17:48:01.497Z,8.38
2023-02-26T17:50:36.572Z,8.22
2023-02-26T17:53:09.445Z,8.06
2023-02-26T17:55:39.478Z,7.88
2023-02-26T17:58:08.498Z,7.71
2023-02-26T18:00:40.706Z,7.54
2023-02-26T18:03:09.801Z,7.41
2023-02-26T18:05:39.249Z,7.35
2023-02-26T18:08:12.700Z,7.21
2023-02-26T18:10:40.495Z,7.14
2023-02-26T18:13:10.188Z,7.09
2023-02-26T18:15:37.967Z,7.06
2023-02-26T18:18:06.337Z,7.13
2023-02-26T18:20:34.101Z,7.34
2023-02-26T18:23:01.787Z,7.56
2023-02-26T18:25:30.888Z,7.75
2023-02-26T18:28:00.359Z,7.93
2023-02-26T18:30:31.282Z,8.09
2023-02-26T18:32:59.332Z,8.21
2023-02-26T18:35:28.796Z,8.41
2023-02-26T18:37:57.010Z,8.51
2023-02-26T18:40:27.149Z,8.56
2023-02-26T18:42:56.762Z,8.57
2023-02-26T18:45:24.760Z,8.55
2023-02-26T18:47:52.548Z,8.41
2023-02-26T18:50:20.332Z,8.22
2023-02-26T18:52:48.164Z,8.06
2023-02-26T18:55:16.184Z,7.93
2023-02-26T18:57:43.931Z,7.80
2023-02-26T19:00:14.961Z,7.71
2023-02-26T19:02:44.414Z,7.58
2023-02-26T19:05:12.557Z,7.57
2023-02-26T19:07:42.591Z,7.50
2023-02-26T19:10:14.650Z,7.43
2023-02-26T19:12:42.436Z,7.37
2023-02-26T19:15:13.773Z,7.30
2023-02-26T19:17:42.270Z,7.23
2023-02-26T19:20:11.662Z,7.29
2023-02-26T19:22:40.039Z,7.42
2023-02-26T19:25:08.550Z,7.50
2023-02-26T19:27:36.680Z,7.66
2023-02-26T19:30:06.194Z,7.75
2023-02-26T19:32:35.423Z,7.93
2023-02-26T19:35:03.168Z,8.02
2023-02-26T19:37:30.956Z,8.06
2023-02-26T19:39:58.687Z,8.18
2023-02-26T19:42:28.320Z,8.30
2023-02-26T19:44:56.864Z,8.25
2023-02-26T19:47:24.689Z,8.06
2023-02-26T19:49:53.800Z,7.87
2023-02-26T19:52:21.583Z,7.73
2023-02-26T19:54:49.315Z,7.58
2023-02-26T19:57:17.042Z,7.44
2023-02-26T19:59:44.935Z,7.33
2023-02-26T20:02:12.710Z,7.23
2023-02-26T20:04:40.554Z,7.21
2023-02-26T20:07:09.851Z,7.14
2023-02-26T20:09:37.579Z,7.09
2023-02-26T20:12:05.592Z,7.01
2023-02-26T20:14:33.351Z,6.95
2023-02-26T20:17:01.336Z,6.91
2023-02-26T20:19:29.867Z,6.88
2023-02-26T20:21:57.787Z,6.76
2023-02-26T20:24:27.149Z,6.69
2023-02-26T20:26:54.950Z,6.67
2023-02-26T20:29:23.595Z,6.69
2023-02-26T20:31:51.646Z,6.63
2023-02-26T20:34:20.275Z,6.60
2023-02-26T20:36:49.978Z,6.55
2023-02-26T20:39:19.092Z,6.57
2023-02-26T20:41:48.265Z,6.55
2023-02-26T20:44:15.977Z,6.52
2023-02-26T20:46:44.211Z,6.51
2023-02-26T20:49:12.338Z,6.47
2023-02-26T20:51:41.284Z,6.49
2023-02-26T20:54:09.526Z,6.49
2023-02-26T20:56:37.332Z,6.49
2023-02-26T20:59:07.716Z,6.50
2023-02-26T21:01:36.386Z,6.49
2023-02-26T21:04:05.257Z,6.47
2023-02-26T21:06:34.116Z,6.43
2023-02-26T21:09:03.185Z,6.42
2023-02-26T21:11:34.572Z,6.41
2023-02-26T21:14:04.097Z,6.44
2023-02-26T21:16:34.382Z,6.43
2023-02-26T21:19:02.725Z,6.45
2023-02-26T21:21:31.031Z,6.42
2023-02-26T21:23:58.922Z,6.38
2023-02-26T21:26:27.721Z,6.37
2023-02-26T21:28:55.653Z,6.37
2023-02-26T21:31:24.113Z,6.38
2023-02-26T21:33:53.225Z,6.38
2023-02-26T21:36:21.943Z,6.33
2023-02-26T21:38:49.762Z,6.32
2023-02-26T21:41:17.517Z,6.28
2023-02-26T21:43:45.397Z,6.22
2023-02-26T21:46:13.154Z,6.20
2023-02-26T21:48:41.170Z,6.20
2023-02-26T21:51:10.313Z,6.19
2023-02-26T21:53:38.061Z,6.19
2023-02-26T21:56:06.123Z,6.19
2023-02-26T21:58:33.860Z,6.16
2023-02-26T22:01:01.864Z,6.17
2023-02-26T22:03:29.650Z,6.15
2023-02-26T22:05:57.516Z,6.11
2023-02-26T22:08:26.548Z,6.13
2023-02-26T22:10:54.319Z,6.16
2023-02-26T22:13:22.029Z,6.15
2023-02-26T22:15:49.741Z,6.15
2023-02-26T22:18:17.472Z,6.12
2023-02-26T22:20:45.188Z,6.12
2023-02-26T22:23:12.883Z,6.11
2023-02-26T22:25:42.001Z,6.03
2023-02-26T22:28:09.881Z,6.02
2023-02-26T22:30:37.790Z,6.05
2023-02-26T22:33:05.648Z,6.04
2023-02-26T22:35:33.605Z,6.04
2023-02-26T22:38:01.366Z,6.04
2023-02-26T22:40:29.084Z,6.02
2023-02-26T22:42:58.773Z,6.01
2023-02-26T22:45:26.513Z,6.02
2023-02-26T22:47:54.204Z,6.03
2023-02-26T22:50:21.933Z,6.05
2023-02-26T22:52:49.987Z,6.03
2023-02-26T22:55:17.926Z,6.02
2023-02-26T22:57:45.689Z,6.02
2023-02-26T23:00:18.704Z,5.99
2023-02-26T23:02:46.733Z,5.99
2023-02-26T23:05:14.748Z,5.98
2023-02-26T23:07:43.288Z,5.97
2023-02-26T23:10:13.951Z,5.97
2023-02-26T23:12:42.213Z,5.94
2023-02-26T23:15:11.188Z,5.98
2023-02-26T23:17:40.855Z,6.01
2023-02-26T23:20:13.720Z,5.96
2023-02-26T23:22:43.667Z,5.95
2023-02-26T23:25:12.077Z,5.95
2023-02-26T23:27:40.137Z,5.96
2023-02-26T23:30:08.993Z,5.96
2023-02-26T23:32:36.841Z,5.92
2023-02-26T23:35:06.663Z,5.94
2023-02-26T23:37:34.404Z,5.93
2023-02-26T23:40:03.766Z,5.93
2023-02-26T23:42:31.599Z,5.93
2023-02-26T23:44:59.320Z,5.93
2023-02-26T23:47:27.091Z,5.90
2023-02-26T23:49:54.793Z,5.90
2023-02-26T23:52:25.726Z,5.88
2023-02-26T23:54:54.429Z,5.86
2023-02-26T23:57:22.239Z,5.87
2023-02-26T23:59:49.954Z,5.83
